createdAt,value
2022-10-18T00:00:46.940Z,24
2022-10-18T00:03:24.927Z,24
2022-10-18T00:05:57.830Z,24
2022-10-18T00:08:29.352Z,24
2022-10-18T00:11:00.162Z,24
2022-10-18T00:13:35.780Z,22
2022-10-18T00:16:06.520Z,23
2022-10-18T00:18:37.910Z,24
2022-10-18T00:21:09.296Z,20
2022-10-18T00:23:40.061Z,23
2022-10-18T00:26:11.227Z,20
2022-10-18T00:28:44.195Z,24
2022-10-18T00:31:15.066Z,20
2022-10-18T00:33:49.506Z,24
2022-10-18T00:36:23.862Z,24
2022-10-18T00:38:55.078Z,24
2022-10-18T00:44:08.730Z,21
2022-10-18T00:46:38.411Z,24
2022-10-18T00:49:09.618Z,22
2022-10-18T00:51:40.553Z,24
2022-10-18T00:54:11.182Z,24
2022-10-18T00:56:42.534Z,24
2022-10-18T00:59:13.188Z,24
2022-10-18T01:01:44.420Z,20
2022-10-18T01:04:15.295Z,20
2022-10-18T01:06:47.512Z,24
2022-10-18T01:09:18.361Z,24
2022-10-18T01:11:50.976Z,24
2022-10-18T01:14:22.398Z,20
2022-10-18T01:16:52.042Z,23
2022-10-18T01:19:23.071Z,24
2022-10-18T01:21:54.804Z,20
2022-10-18T01:24:26.650Z,24
2022-10-18T01:26:56.537Z,24
2022-10-18T01:29:27.817Z,20
2022-10-18T01:32:00.130Z,23
2022-10-18T01:34:32.731Z,24
2022-10-18T01:37:03.641Z,24
2022-10-18T01:39:35.290Z,23
2022-10-18T01:42:06.132Z,24
2022-10-18T01:44:36.893Z,24
2022-10-18T01:47:08.080Z,24
2022-10-18T01:49:39.570Z,22
2022-10-18T01:52:10.509Z,24
2022-10-18T01:54:43.223Z,20
2022-10-18T01:57:13.998Z,24
2022-10-18T01:59:45.278Z,20
2022-10-18T02:02:16.508Z,24
2022-10-18T02:04:47.148Z,21
2022-10-18T02:07:19.088Z,20
2022-10-18T02:09:56.523Z,21
2022-10-18T02:12:28.051Z,20
2022-10-18T02:14:58.865Z,23
2022-10-18T02:17:29.892Z,20
2022-10-18T02:20:01.058Z,20
2022-10-18T02:22:35.983Z,20
2022-10-18T02:25:07.466Z,21
2022-10-18T02:27:38.486Z,20
2022-10-18T02:30:08.018Z,23
2022-10-18T02:32:39.036Z,20
2022-10-18T02:35:09.946Z,19
2022-10-18T02:37:41.036Z,20
2022-10-18T02:40:12.769Z,20
2022-10-18T02:42:44.386Z,20
2022-10-18T02:45:22.613Z,20
2022-10-18T02:47:53.631Z,20
2022-10-18T02:50:27.676Z,20
2022-10-18T02:52:58.972Z,21
2022-10-18T02:55:30.037Z,20
2022-10-18T02:58:01.163Z,24
2022-10-18T03:00:32.176Z,20
2022-10-18T03:03:02.830Z,20
2022-10-18T03:05:34.143Z,24
2022-10-18T03:08:05.794Z,23
2022-10-18T03:10:38.768Z,20
2022-10-18T03:13:09.953Z,20
2022-10-18T03:15:43.008Z,23
2022-10-18T03:18:14.772Z,20
2022-10-18T03:20:45.803Z,20
2022-10-18T03:23:18.006Z,24
2022-10-18T03:25:50.790Z,20
2022-10-18T03:28:21.706Z,20
2022-10-18T03:30:53.144Z,20
2022-10-18T03:33:23.987Z,20
2022-10-18T03:35:56.141Z,20
2022-10-18T03:38:27.847Z,20
2022-10-18T03:41:05.025Z,21
2022-10-18T03:43:36.282Z,20
2022-10-18T03:46:07.338Z,20
2022-10-18T03:48:38.600Z,20
2022-10-18T03:51:09.486Z,20
2022-10-18T03:53:41.225Z,19
2022-10-18T03:58:53.690Z,19
2022-10-18T04:01:24.721Z,20
2022-10-18T04:03:56.011Z,18
2022-10-18T04:06:27.160Z,20
2022-10-18T04:08:59.805Z,20
2022-10-18T04:11:30.513Z,18
2022-10-18T04:14:01.284Z,20
2022-10-18T04:16:32.486Z,17
2022-10-18T04:19:03.801Z,20
2022-10-18T04:21:34.695Z,20
2022-10-18T04:24:06.120Z,16
2022-10-18T04:26:36.563Z,16
2022-10-18T04:29:07.691Z,17
2022-10-18T04:31:39.685Z,18
2022-10-18T04:34:10.803Z,16
2022-10-18T04:36:42.004Z,20
2022-10-18T04:39:13.226Z,16
2022-10-18T04:41:44.864Z,16
2022-10-18T04:44:15.983Z,20
2022-10-18T04:46:46.413Z,16
2022-10-18T04:49:16.841Z,16
2022-10-18T04:51:48.518Z,16
2022-10-18T04:54:19.857Z,16
2022-10-18T04:56:52.559Z,16
2022-10-18T04:59:23.326Z,16
2022-10-18T05:01:57.383Z,16
2022-10-18T05:04:34.089Z,12
2022-10-18T05:07:05.225Z,16
2022-10-18T05:09:36.460Z,20
2022-10-18T05:12:10.746Z,16
2022-10-18T05:14:43.578Z,20
2022-10-18T05:17:14.424Z,20
2022-10-18T05:19:44.740Z,20
2022-10-18T05:22:16.264Z,20
2022-10-18T05:24:47.084Z,20
2022-10-18T05:27:17.812Z,18
2022-10-18T05:29:49.340Z,20
2022-10-18T05:32:22.352Z,20
2022-10-18T05:34:51.531Z,16
2022-10-18T05:37:26.045Z,20
2022-10-18T05:39:53.572Z,20
2022-10-18T05:42:25.185Z,20
2022-10-18T05:44:57.806Z,16
2022-10-18T05:47:28.682Z,16
2022-10-18T05:50:02.961Z,20
2022-10-18T05:52:34.144Z,16
2022-10-18T05:55:07.604Z,20
2022-10-18T05:57:38.896Z,20
2022-10-18T06:00:09.407Z,20
2022-10-18T06:02:43.778Z,20
2022-10-18T06:05:14.392Z,20
2022-10-18T06:07:45.917Z,20
2022-10-18T06:10:16.537Z,20
2022-10-18T06:12:47.034Z,16
2022-10-18T06:15:17.583Z,20
2022-10-18T06:17:48.730Z,22
2022-10-18T06:20:19.666Z,18
2022-10-18T06:22:50.612Z,20
2022-10-18T06:25:23.110Z,18
2022-10-18T06:27:54.498Z,20
2022-10-18T06:30:25.625Z,16
2022-10-18T06:32:56.606Z,18
2022-10-18T06:35:28.438Z,16
2022-10-18T06:37:59.812Z,16
2022-10-18T06:40:30.735Z,16
2022-10-18T06:43:16.466Z,16
2022-10-18T06:45:32.362Z,12
2022-10-18T06:48:03.102Z,12
2022-10-18T06:50:40.045Z,18
2022-10-18T06:53:10.568Z,16
2022-10-18T06:55:41.444Z,20
2022-10-18T06:58:12.998Z,16
2022-10-18T07:00:44.057Z,17
2022-10-18T07:03:21.548Z,20
2022-10-18T07:05:52.105Z,20
2022-10-18T07:08:22.813Z,20
2022-10-18T07:10:53.429Z,16
2022-10-18T07:13:38.327Z,19
2022-10-18T07:15:52.775Z,22
2022-10-18T07:18:23.654Z,21
2022-10-18T07:23:30.846Z,16
2022-10-18T07:26:00.223Z,22
2022-10-18T07:28:31.469Z,16
2022-10-18T07:31:05.940Z,16
2022-10-18T07:33:34.883Z,16
2022-10-18T07:36:05.405Z,20
2022-10-18T07:38:35.661Z,20
2022-10-18T07:41:08.817Z,20
2022-10-18T07:43:39.455Z,28
2022-10-18T07:46:10.509Z,16
2022-10-18T07:48:40.969Z,16
2022-10-18T07:51:13.501Z,12
2022-10-18T07:53:44.831Z,12
2022-10-18T07:56:15.483Z,16
2022-10-18T07:58:47.902Z,13
2022-10-18T08:01:18.617Z,16
2022-10-18T08:03:49.070Z,12
2022-10-18T08:06:19.605Z,16
2022-10-18T08:08:50.033Z,16
2022-10-18T08:11:21.729Z,20
2022-10-18T08:13:53.218Z,18
2022-10-18T08:16:23.892Z,16
2022-10-18T08:18:54.206Z,16
2022-10-18T08:21:24.986Z,16
2022-10-18T08:23:55.624Z,16
2022-10-18T08:26:27.096Z,16
2022-10-18T08:31:34.092Z,12
2022-10-18T08:34:04.775Z,13
2022-10-18T08:36:35.929Z,12
2022-10-18T08:39:06.361Z,12
2022-10-18T08:41:36.782Z,12
2022-10-18T08:44:07.561Z,12
2022-10-18T08:46:38.455Z,12
2022-10-18T08:49:09.147Z,8
2022-10-18T08:51:39.857Z,11
2022-10-18T08:54:11.438Z,12
2022-10-18T08:56:47.520Z,12
2022-10-18T08:59:23.253Z,12
2022-10-18T09:01:51.155Z,9
2022-10-18T09:04:21.689Z,9
2022-10-18T09:06:52.520Z,12
2022-10-18T09:09:22.127Z,8
2022-10-18T09:11:56.835Z,8
2022-10-18T09:14:27.349Z,8
2022-10-18T09:16:58.552Z,8
2022-10-18T09:19:29.307Z,8
2022-10-18T09:21:59.966Z,8
2022-10-18T09:24:30.410Z,8
2022-10-18T09:27:01.343Z,8
2022-10-18T09:29:32.036Z,8
2022-10-18T09:32:05.110Z,8
2022-10-18T09:34:35.921Z,8
2022-10-18T09:37:07.067Z,8
2022-10-18T09:39:38.941Z,8
2022-10-18T09:42:09.666Z,8
2022-10-18T09:44:41.466Z,8
2022-10-18T09:47:16.800Z,8
2022-10-18T09:49:46.204Z,8
2022-10-18T09:52:19.312Z,8
2022-10-18T09:54:49.749Z,8
2022-10-18T09:57:18.882Z,8
2022-10-18T09:59:51.806Z,4
2022-10-18T10:02:20.793Z,10
2022-10-18T10:04:51.280Z,8
2022-10-18T10:07:22.030Z,8
2022-10-18T10:09:52.521Z,8
2022-10-18T10:12:23.466Z,8
2022-10-18T10:14:54.359Z,8
2022-10-18T10:17:25.015Z,8
2022-10-18T10:19:55.796Z,8
2022-10-18T10:22:30.973Z,8
2022-10-18T10:25:01.849Z,12
2022-10-18T10:27:33.475Z,8
2022-10-18T10:30:06.942Z,8
2022-10-18T10:32:34.623Z,8
2022-10-18T10:35:05.537Z,8
2022-10-18T10:37:36.794Z,8
2022-10-18T10:40:17.627Z,8
2022-10-18T10:42:39.531Z,8
2022-10-18T10:45:08.681Z,8
2022-10-18T10:47:39.107Z,12
2022-10-18T10:50:08.408Z,9
2022-10-18T10:52:39.768Z,9
2022-10-18T10:55:30.683Z,8
2022-10-18T10:57:41.300Z,8
2022-10-18T11:00:13.803Z,12
2022-10-18T11:02:51.150Z,12
2022-10-18T11:05:14.804Z,9
2022-10-18T11:07:45.500Z,9
2022-10-18T11:10:15.874Z,8
2022-10-18T11:12:46.418Z,8
2022-10-18T11:15:17.251Z,12
2022-10-18T11:17:46.213Z,12
2022-10-18T11:20:16.508Z,12
2022-10-18T11:22:53.450Z,8
2022-10-18T11:25:24.028Z,8
2022-10-18T11:27:54.206Z,8
2022-10-18T11:30:24.586Z,12
2022-10-18T11:32:55.364Z,11
2022-10-18T11:35:26.989Z,9
2022-10-18T11:37:56.173Z,8
2022-10-18T11:40:26.800Z,9
2022-10-18T11:42:58.144Z,12
2022-10-18T11:47:59.630Z,9
2022-10-18T11:50:30.291Z,12
2022-10-18T11:53:00.703Z,12
2022-10-18T11:55:32.105Z,15
2022-10-18T11:58:04.208Z,12
2022-10-18T12:00:34.815Z,12
2022-10-18T12:03:05.510Z,12
2022-10-18T12:05:36.521Z,12
2022-10-18T12:08:07.437Z,12
2022-10-18T12:10:45.877Z,9
2022-10-18T12:13:08.797Z,12
2022-10-18T12:15:39.308Z,12
2022-10-18T12:18:11.005Z,12
2022-10-18T12:20:43.092Z,12
2022-10-18T12:23:16.183Z,12
2022-10-18T12:25:52.539Z,8
2022-10-18T12:28:29.423Z,12
2022-10-18T12:31:00.248Z,16
2022-10-18T12:33:30.634Z,16
2022-10-18T12:36:02.099Z,15
2022-10-18T12:38:33.265Z,12
2022-10-18T12:41:05.156Z,8
2022-10-18T12:43:35.890Z,8
2022-10-18T12:46:12.375Z,12
2022-10-18T12:48:39.450Z,12
2022-10-18T12:51:09.978Z,8
2022-10-18T12:56:20.795Z,12
2022-10-18T12:58:52.258Z,8
2022-10-18T13:01:22.986Z,12
2022-10-18T13:03:54.770Z,8
2022-10-18T13:06:25.685Z,8
2022-10-18T13:08:56.407Z,12
2022-10-18T13:16:38.251Z,12
2022-10-18T13:19:09.074Z,8
2022-10-18T13:21:40.637Z,12
2022-10-18T13:24:11.883Z,12
2022-10-18T13:26:42.000Z,12
2022-10-18T13:29:13.199Z,12
2022-10-18T13:31:44.224Z,12
2022-10-18T13:34:16.553Z,12
2022-10-18T13:36:47.392Z,12
2022-10-18T13:39:17.851Z,12
2022-10-18T13:41:50.739Z,12
2022-10-18T13:44:23.498Z,12
2022-10-18T13:46:54.976Z,12
2022-10-18T13:49:29.860Z,12
2022-10-18T13:52:00.828Z,12
2022-10-18T13:54:32.195Z,12
2022-10-18T13:57:03.874Z,12
2022-10-18T14:02:05.129Z,14
2022-10-18T14:04:35.852Z,12
2022-10-18T14:07:04.900Z,12
2022-10-18T14:09:44.334Z,15
2022-10-18T14:12:14.390Z,8
2022-10-18T14:14:45.739Z,8
2022-10-18T14:17:17.987Z,8
2022-10-18T14:19:46.495Z,8
2022-10-18T14:22:22.722Z,11
2022-10-18T14:24:53.326Z,12
2022-10-18T14:27:26.632Z,8
2022-10-18T14:29:58.683Z,8
2022-10-18T14:32:29.816Z,8
2022-10-18T14:35:27.490Z,8
2022-10-18T14:37:31.649Z,8
2022-10-18T14:40:01.258Z,10
2022-10-18T14:42:33.880Z,8
2022-10-18T14:45:06.386Z,8
2022-10-18T14:47:37.404Z,8
2022-10-18T14:50:14.487Z,8
2022-10-18T14:55:41.666Z,12
2022-10-18T14:58:13.187Z,12
2022-10-18T15:00:48.440Z,9
2022-10-18T15:03:21.779Z,12
2022-10-18T15:05:59.958Z,12
2022-10-18T15:08:37.157Z,12
2022-10-18T15:11:13.297Z,8
2022-10-18T15:13:43.195Z,13
2022-10-18T15:16:13.727Z,8
2022-10-18T15:18:47.455Z,8
2022-10-18T15:21:18.606Z,12
2022-10-18T15:23:50.288Z,12
2022-10-18T15:26:27.869Z,12
2022-10-18T15:29:00.563Z,12
2022-10-18T15:31:30.901Z,16
2022-10-18T15:34:00.453Z,14
2022-10-18T15:36:30.072Z,16
2022-10-18T15:39:01.260Z,13
2022-10-18T15:41:32.363Z,15
2022-10-18T15:44:03.669Z,12
2022-10-18T15:49:11.029Z,12
2022-10-18T15:51:47.764Z,16
2022-10-18T15:54:18.896Z,16
2022-10-18T15:56:50.692Z,13
2022-10-18T15:59:25.054Z,12
2022-10-18T16:01:56.107Z,12
2022-10-18T16:04:28.305Z,16
2022-10-18T16:07:05.192Z,16
2022-10-18T16:09:40.360Z,17
2022-10-18T16:12:11.539Z,20
2022-10-18T16:14:43.059Z,40
2022-10-18T16:17:14.440Z,24
2022-10-18T16:19:45.817Z,25
2022-10-18T16:22:17.009Z,24
2022-10-18T16:24:48.517Z,20
2022-10-18T16:27:20.271Z,24
2022-10-18T16:29:51.926Z,24
2022-10-18T16:32:25.328Z,21
2022-10-18T16:34:57.965Z,24
2022-10-18T16:37:29.243Z,21
2022-10-18T16:40:02.702Z,24
2022-10-18T16:42:34.360Z,24
2022-10-18T16:45:06.781Z,24
2022-10-18T16:47:37.715Z,24
2022-10-18T16:50:10.196Z,24
2022-10-18T16:52:40.975Z,24
2022-10-18T16:55:13.181Z,28
2022-10-18T16:57:44.547Z,28
2022-10-18T17:00:22.880Z,28
2022-10-18T17:02:56.296Z,25
2022-10-18T17:05:27.771Z,28
2022-10-18T17:07:58.819Z,28
2022-10-18T17:10:40.903Z,32
2022-10-18T17:13:12.847Z,29
2022-10-18T17:15:44.331Z,28
2022-10-18T17:18:17.659Z,32
2022-10-18T17:20:48.698Z,35
2022-10-18T17:23:19.899Z,34
2022-10-18T17:25:57.769Z,36
2022-10-18T17:28:23.117Z,34
2022-10-18T17:30:56.414Z,32
2022-10-18T17:33:27.890Z,32
2022-10-18T17:35:59.483Z,28
2022-10-18T17:38:31.073Z,32
2022-10-18T17:41:02.389Z,32
2022-10-18T17:43:35.628Z,28
2022-10-18T17:46:06.859Z,33
2022-10-18T17:48:41.692Z,32
2022-10-18T17:51:13.933Z,35
2022-10-18T17:56:32.804Z,35
2022-10-18T17:59:04.792Z,34
2022-10-18T18:01:36.222Z,36
2022-10-18T18:04:07.371Z,36
2022-10-18T18:06:38.488Z,36
2022-10-18T18:09:09.788Z,36
2022-10-18T18:11:41.828Z,36
2022-10-18T18:14:13.495Z,33
2022-10-18T18:16:46.405Z,36
2022-10-18T18:19:17.330Z,40
2022-10-18T18:21:48.615Z,43
2022-10-18T18:24:20.128Z,43
2022-10-18T18:26:51.320Z,40
2022-10-18T18:29:22.281Z,41
2022-10-18T18:31:54.659Z,39
2022-10-18T18:34:27.161Z,40
2022-10-18T18:36:59.349Z,40
2022-10-18T18:39:31.549Z,41
2022-10-18T18:42:02.795Z,39
2022-10-18T18:44:35.703Z,39
2022-10-18T18:47:13.215Z,36
2022-10-18T18:52:17.799Z,42
2022-10-18T18:54:50.169Z,39
2022-10-18T18:57:22.661Z,40
2022-10-18T18:59:56.921Z,40
2022-10-18T19:02:29.600Z,36
2022-10-18T19:05:00.813Z,36
2022-10-18T19:07:32.561Z,36
2022-10-18T19:10:01.948Z,36
2022-10-18T19:12:33.719Z,32
2022-10-18T19:15:05.349Z,36
2022-10-18T19:17:38.040Z,36
2022-10-18T19:20:09.411Z,36
2022-10-18T19:22:40.499Z,36
2022-10-18T19:25:11.182Z,36
2022-10-18T19:27:51.274Z,39
2022-10-18T19:30:25.030Z,36
2022-10-18T19:32:58.716Z,38
2022-10-18T19:35:29.004Z,40
2022-10-18T19:38:01.724Z,40
2022-10-18T19:40:34.073Z,40
2022-10-18T19:43:04.360Z,46
2022-10-18T19:45:36.736Z,48
2022-10-18T19:48:12.409Z,44
2022-10-18T19:50:40.714Z,39
2022-10-18T19:53:12.076Z,40
2022-10-18T19:55:43.819Z,36
2022-10-18T19:58:15.420Z,36
2022-10-18T20:00:51.343Z,36
2022-10-18T20:03:23.294Z,32
2022-10-18T20:05:56.928Z,35
2022-10-18T20:13:42.111Z,32
2022-10-18T20:16:14.248Z,36
2022-10-18T20:18:45.609Z,32
2022-10-18T20:21:16.021Z,32
2022-10-18T20:23:47.487Z,33
2022-10-18T20:26:20.374Z,32
2022-10-18T20:28:50.573Z,32
2022-10-18T20:31:23.881Z,32
2022-10-18T20:33:56.157Z,32
2022-10-18T20:36:27.974Z,32
2022-10-18T20:38:59.318Z,36
2022-10-18T20:41:31.022Z,36
2022-10-18T20:44:06.013Z,32
2022-10-18T20:46:38.217Z,32
2022-10-18T20:49:09.669Z,29
2022-10-18T20:51:41.030Z,32
2022-10-18T20:54:13.901Z,32
2022-10-18T20:56:45.461Z,32
2022-10-18T20:59:16.656Z,28
2022-10-18T21:01:49.399Z,32
2022-10-18T21:04:21.962Z,32
2022-10-18T21:06:53.447Z,29
2022-10-18T21:09:23.636Z,34
2022-10-18T21:11:55.893Z,32
2022-10-18T21:14:27.010Z,32
2022-10-18T21:16:59.336Z,36
2022-10-18T21:19:32.520Z,36
2022-10-18T21:22:04.469Z,36
2022-10-18T21:24:35.658Z,36
2022-10-18T21:27:06.745Z,32
2022-10-18T21:29:38.530Z,32
2022-10-18T21:32:08.633Z,36
2022-10-18T21:34:40.256Z,32
2022-10-18T21:37:12.799Z,32
2022-10-18T21:39:43.901Z,35
2022-10-18T21:42:17.702Z,36
2022-10-18T21:44:48.810Z,36
2022-10-18T21:47:21.014Z,36
2022-10-18T21:49:53.566Z,34
2022-10-18T21:52:28.064Z,36
2022-10-18T21:54:59.164Z,36
2022-10-18T21:57:30.747Z,36
2022-10-18T22:02:40.227Z,39
2022-10-18T22:05:13.194Z,36
2022-10-18T22:07:44.578Z,35
2022-10-18T22:10:16.198Z,33
2022-10-18T22:12:47.809Z,36
2022-10-18T22:15:19.780Z,36
2022-10-18T22:17:49.866Z,32
2022-10-18T22:20:20.975Z,35
2022-10-18T22:22:51.384Z,33
2022-10-18T22:25:22.107Z,36
2022-10-18T22:27:52.573Z,32
2022-10-18T22:30:24.180Z,32
2022-10-18T22:32:55.926Z,32
2022-10-18T22:35:26.386Z,32
2022-10-18T22:37:57.982Z,33
2022-10-18T22:40:31.094Z,36
2022-10-18T22:43:01.638Z,32
2022-10-18T22:45:32.170Z,36
2022-10-18T22:48:03.673Z,36
2022-10-18T22:50:34.456Z,33
2022-10-18T22:53:05.095Z,36
2022-10-18T22:55:35.968Z,35
2022-10-18T22:58:13.065Z,36
2022-10-18T23:00:43.848Z,36
2022-10-18T23:03:14.516Z,36
2022-10-18T23:05:45.828Z,36
2022-10-18T23:08:17.460Z,36
2022-10-18T23:10:49.708Z,36
2022-10-18T23:13:20.505Z,36
2022-10-18T23:15:51.434Z,36
2022-10-18T23:18:22.347Z,36
2022-10-18T23:20:54.896Z,36
2022-10-18T23:23:25.541Z,37
2022-10-18T23:25:58.104Z,37
2022-10-18T23:28:32.704Z,36
2022-10-18T23:31:03.614Z,36
2022-10-18T23:33:33.850Z,36
2022-10-18T23:36:07.748Z,33
2022-10-18T23:38:37.601Z,32
2022-10-18T23:41:09.538Z,36
2022-10-18T23:43:40.361Z,32
2022-10-18T23:46:11.076Z,32
2022-10-18T23:48:43.299Z,32
2022-10-18T23:51:16.950Z,32
2022-10-18T23:53:48.119Z,32
2022-10-18T23:56:19.099Z,33
2022-10-18T23:58:50.424Z,32
